Terminal Aerodrome Forecast
Issued by NWS

Home | Current Version | Previous Version | Text Only | Print | Product List | Glossary On
Versions: 1 2 3 4 5 6 7 8 9 10 11 12 13 14 15 16 17 18 19 20 21
577
FTUS45 KPSR 251446 AAA
TAFPHX
TAF AMD
KPHX 251446Z 2515/2612 26012KT P6SM FEW160 BKN200
     FM251800 28013G20KT P6SM FEW160 BKN250
     FM252000 27025G36KT P6SM BKN250
      TEMPO 2522/2602 6SM BLDU
     FM260300 28015G25KT P6SM SCT250
     FM260800 32008KT P6SM SCT250=

USA.gov is the U.S. government's official web portal to all federal, state and local government web resources and services.